sensor_id;sensor_type;location;lat;lon;timestamp;pressure;altitude;pressure_sealevel;temperature;humidity
28004;BME280;15330;51.234;6.754;2023-03-30T00:01:13;100257.78;;;12.35;100.00
28004;BME280;15330;51.234;6.754;2023-03-30T00:03:42;100250.19;;;12.38;99.96
28004;BME280;15330;51.234;6.754;2023-03-30T00:06:09;100236.41;;;12.41;99.57
28004;BME280;15330;51.234;6.754;2023-03-30T00:08:35;100238.06;;;12.42;99.26
28004;BME280;15330;51.234;6.754;2023-03-30T00:11:02;100243.06;;;12.45;99.20
28004;BME280;15330;51.234;6.754;2023-03-30T00:13:31;100242.84;;;12.47;98.62
28004;BME280;15330;51.234;6.754;2023-03-30T00:15:56;100233.34;;;12.44;98.77
28004;BME280;15330;51.234;6.754;2023-03-30T00:18:22;100233.78;;;12.48;98.31
28004;BME280;15330;51.234;6.754;2023-03-30T00:20:48;100218.16;;;12.52;97.72
28004;BME280;15330;51.234;6.754;2023-03-30T00:23:14;100218.16;;;12.52;97.73
28004;BME280;15330;51.234;6.754;2023-03-30T00:25:41;100219.16;;;12.50;97.35
28004;BME280;15330;51.234;6.754;2023-03-30T00:28:06;100217.31;;;12.51;96.98
28004;BME280;15330;51.234;6.754;2023-03-30T00:30:32;100227.66;;;12.54;96.92
28004;BME280;15330;51.234;6.754;2023-03-30T00:32:57;100238.22;;;12.56;96.49
28004;BME280;15330;51.234;6.754;2023-03-30T00:35:23;100240.44;;;12.52;96.47
28004;BME280;15330;51.234;6.754;2023-03-30T00:37:50;100241.47;;;12.51;96.55
28004;BME280;15330;51.234;6.754;2023-03-30T00:40:19;100240.81;;;12.49;96.64
28004;BME280;15330;51.234;6.754;2023-03-30T00:42:45;100237.94;;;12.50;96.49
28004;BME280;15330;51.234;6.754;2023-03-30T00:47:43;100235.25;;;12.50;96.20
28004;BME280;15330;51.234;6.754;2023-03-30T00:50:11;100225.91;;;12.46;95.81
28004;BME280;15330;51.234;6.754;2023-03-30T00:52:37;100210.59;;;12.40;96.46
28004;BME280;15330;51.234;6.754;2023-03-30T00:55:05;100192.78;;;12.33;96.87
28004;BME280;15330;51.234;6.754;2023-03-30T00:57:35;100208.28;;;12.37;96.44
28004;BME280;15330;51.234;6.754;2023-03-30T01:00:04;100188.66;;;12.37;95.89
28004;BME280;15330;51.234;6.754;2023-03-30T01:02:34;100191.03;;;12.46;95.29
28004;BME280;15330;51.234;6.754;2023-03-30T01:05:03;100184.47;;;12.49;94.80
28004;BME280;15330;51.234;6.754;2023-03-30T01:07:31;100185.06;;;12.44;94.98
28004;BME280;15330;51.234;6.754;2023-03-30T01:09:57;100185.06;;;12.44;94.68
28004;BME280;15330;51.234;6.754;2023-03-30T01:12:23;100180.13;;;12.48;94.38
28004;BME280;15330;51.234;6.754;2023-03-30T01:14:49;100187.63;;;12.53;93.92
28004;BME280;15330;51.234;6.754;2023-03-30T01:25:59;100191.38;;;12.58;93.00
28004;BME280;15330;51.234;6.754;2023-03-30T01:28:49;100186.47;;;12.62;92.35
28004;BME280;15330;51.234;6.754;2023-03-30T01:31:29;100191.00;;;12.61;92.77
28004;BME280;15330;51.234;6.754;2023-03-30T01:34:16;100198.25;;;12.67;91.83
28004;BME280;15330;51.234;6.754;2023-03-30T01:39:40;100197.34;;;12.75;91.25
28004;BME280;15330;51.234;6.754;2023-03-30T01:42:17;100206.03;;;12.77;90.65
28004;BME280;15330;51.234;6.754;2023-03-30T01:44:57;100203.13;;;12.78;90.64
28004;BME280;15330;51.234;6.754;2023-03-30T01:50:21;100190.72;;;12.77;90.63
28004;BME280;15330;51.234;6.754;2023-03-30T01:55:45;100189.00;;;12.70;90.83
28004;BME280;15330;51.234;6.754;2023-03-30T02:00:45;100193.22;;;12.79;90.29
28004;BME280;15330;51.234;6.754;2023-03-30T02:03:20;100186.00;;;12.79;89.79
28004;BME280;15330;51.234;6.754;2023-03-30T02:05:49;100184.16;;;12.80;90.11
28004;BME280;15330;51.234;6.754;2023-03-30T02:08:19;100175.06;;;12.81;89.56
28004;BME280;15330;51.234;6.754;2023-03-30T02:10:47;100161.47;;;12.82;89.38
28004;BME280;15330;51.234;6.754;2023-03-30T02:13:14;100171.41;;;12.88;88.92
28004;BME280;15330;51.234;6.754;2023-03-30T02:15:44;100171.69;;;12.94;88.46
28004;BME280;15330;51.234;6.754;2023-03-30T02:18:12;100174.59;;;12.99;88.08
28004;BME280;15330;51.234;6.754;2023-03-30T02:20:37;100165.34;;;13.01;87.80
28004;BME280;15330;51.234;6.754;2023-03-30T02:23:04;100159.78;;;13.03;87.63
28004;BME280;15330;51.234;6.754;2023-03-30T02:25:30;100162.50;;;13.09;87.52
28004;BME280;15330;51.234;6.754;2023-03-30T02:27:56;100150.34;;;13.13;86.97
28004;BME280;15330;51.234;6.754;2023-03-30T02:30:21;100140.97;;;13.03;87.53
28004;BME280;15330;51.234;6.754;2023-03-30T02:32:52;100137.47;;;13.02;87.34
28004;BME280;15330;51.234;6.754;2023-03-30T02:35:48;100121.88;;;12.91;87.93
28004;BME280;15330;51.234;6.754;2023-03-30T02:49:35;100122.38;;;13.29;85.73
28004;BME280;15330;51.234;6.754;2023-03-30T02:54:40;100124.69;;;13.32;85.62
28004;BME280;15330;51.234;6.754;2023-03-30T02:57:11;100126.81;;;13.43;84.75
28004;BME280;15330;51.234;6.754;2023-03-30T03:02:09;100103.72;;;13.49;84.95
28004;BME280;15330;51.234;6.754;2023-03-30T03:04:36;100082.97;;;13.36;85.22
28004;BME280;15330;51.234;6.754;2023-03-30T03:07:02;100094.13;;;13.40;85.53
28004;BME280;15330;51.234;6.754;2023-03-30T03:09:28;100105.13;;;13.45;85.31
28004;BME280;15330;51.234;6.754;2023-03-30T03:11:54;100102.25;;;13.46;85.36
28004;BME280;15330;51.234;6.754;2023-03-30T03:14:20;100098.47;;;13.41;85.62
28004;BME280;15330;51.234;6.754;2023-03-30T03:16:46;100101.22;;;13.47;85.32
28004;BME280;15330;51.234;6.754;2023-03-30T03:19:11;100115.88;;;13.45;85.49
28004;BME280;15330;51.234;6.754;2023-03-30T03:21:37;100123.09;;;13.44;85.38
28004;BME280;15330;51.234;6.754;2023-03-30T03:24:03;100111.31;;;13.45;85.80
28004;BME280;15330;51.234;6.754;2023-03-30T03:26:28;100120.59;;;13.43;85.75
28004;BME280;15330;51.234;6.754;2023-03-30T03:28:54;100123.34;;;13.49;85.74
28004;BME280;15330;51.234;6.754;2023-03-30T03:31:20;100106.53;;;13.41;85.66
28004;BME280;15330;51.234;6.754;2023-03-30T03:33:46;100104.88;;;13.40;85.65
28004;BME280;15330;51.234;6.754;2023-03-30T03:36:11;100113.19;;;13.51;85.57
28004;BME280;15330;51.234;6.754;2023-03-30T03:38:37;100103.75;;;13.62;85.11
28004;BME280;15330;51.234;6.754;2023-03-30T03:41:03;100100.59;;;13.52;85.26
28004;BME280;15330;51.234;6.754;2023-03-30T03:43:28;100098.56;;;13.60;85.03
28004;BME280;15330;51.234;6.754;2023-03-30T03:45:54;100080.56;;;13.48;85.73
28004;BME280;15330;51.234;6.754;2023-03-30T03:48:22;100085.03;;;13.41;86.37
28004;BME280;15330;51.234;6.754;2023-03-30T03:50:56;100084.25;;;13.47;85.81
28004;BME280;15330;51.234;6.754;2023-03-30T03:53:22;100087.16;;;13.45;86.01
28004;BME280;15330;51.234;6.754;2023-03-30T03:55:48;100088.38;;;13.43;86.12
28004;BME280;15330;51.234;6.754;2023-03-30T03:58:14;100083.81;;;13.43;85.76
28004;BME280;15330;51.234;6.754;2023-03-30T04:00:40;100085.03;;;13.41;86.27
28004;BME280;15330;51.234;6.754;2023-03-30T04:03:06;100072.41;;;13.35;86.06
28004;BME280;15330;51.234;6.754;2023-03-30T04:05:33;100071.41;;;13.42;85.99
28004;BME280;15330;51.234;6.754;2023-03-30T04:07:58;100062.31;;;13.37;86.52
28004;BME280;15330;51.234;6.754;2023-03-30T04:10:24;100065.22;;;13.42;86.17
28004;BME280;15330;51.234;6.754;2023-03-30T04:12:49;100073.72;;;13.45;86.02
28004;BME280;15330;51.234;6.754;2023-03-30T04:15:15;100068.09;;;13.40;86.35
28004;BME280;15330;51.234;6.754;2023-03-30T04:17:40;100059.44;;;13.45;86.33
28004;BME280;15330;51.234;6.754;2023-03-30T04:20:07;100055.69;;;13.39;86.83
28004;BME280;15330;51.234;6.754;2023-03-30T04:22:35;100057.34;;;13.40;86.88
28004;BME280;15330;51.234;6.754;2023-03-30T04:25:01;100049.53;;;13.45;86.55
28004;BME280;15330;51.234;6.754;2023-03-30T04:27:31;100059.06;;;13.48;86.41
28004;BME280;15330;51.234;6.754;2023-03-30T04:29:57;100063.41;;;13.49;86.66
28004;BME280;15330;51.234;6.754;2023-03-30T04:32:23;100040.41;;;13.40;86.56
28004;BME280;15330;51.234;6.754;2023-03-30T04:34:49;100072.13;;;13.64;85.68
28004;BME280;15330;51.234;6.754;2023-03-30T04:37:21;100060.13;;;13.60;85.94
28004;BME280;15330;51.234;6.754;2023-03-30T04:39:58;100067.78;;;13.63;85.90
28004;BME280;15330;51.234;6.754;2023-03-30T04:42:24;100061.63;;;13.69;85.80
28004;BME280;15330;51.234;6.754;2023-03-30T04:44:55;100054.41;;;13.83;84.97
28004;BME280;15330;51.234;6.754;2023-03-30T04:47:21;100059.78;;;13.83;85.06
28004;BME280;15330;51.234;6.754;2023-03-30T04:49:47;100063.94;;;13.92;84.96
28004;BME280;15330;51.234;6.754;2023-03-30T04:52:12;100064.81;;;14.06;83.96
28004;BME280;15330;51.234;6.754;2023-03-30T04:54:37;100075.38;;;14.07;84.22
28004;BME280;15330;51.234;6.754;2023-03-30T04:57:03;100073.69;;;14.06;84.28
28004;BME280;15330;51.234;6.754;2023-03-30T04:59:28;100064.41;;;14.15;83.99
28004;BME280;15330;51.234;6.754;2023-03-30T05:01:53;100062.13;;;14.12;84.18
28004;BME280;15330;51.234;6.754;2023-03-30T05:04:19;100066.69;;;14.18;84.73
28004;BME280;15330;51.234;6.754;2023-03-30T05:06:44;100066.69;;;14.25;84.36
28004;BME280;15330;51.234;6.754;2023-03-30T05:09:09;100069.00;;;14.21;83.98
28004;BME280;15330;51.234;6.754;2023-03-30T05:11:35;100073.59;;;14.41;83.59
28004;BME280;15330;51.234;6.754;2023-03-30T05:14:00;100065.47;;;14.27;83.92
28004;BME280;15330;51.234;6.754;2023-03-30T05:16:25;100070.44;;;14.37;83.67
28004;BME280;15330;51.234;6.754;2023-03-30T05:18:51;100070.22;;;14.25;84.26
28004;BME280;15330;51.234;6.754;2023-03-30T05:21:16;100071.47;;;14.29;84.05
28004;BME280;15330;51.234;6.754;2023-03-30T05:23:41;100073.09;;;14.24;84.50
28004;BME280;15330;51.234;6.754;2023-03-30T05:26:07;100082.84;;;14.25;84.58
28004;BME280;15330;51.234;6.754;2023-03-30T05:28:33;100082.84;;;14.18;84.73
28004;BME280;15330;51.234;6.754;2023-03-30T05:30:58;100084.06;;;14.22;84.69
28004;BME280;15330;51.234;6.754;2023-03-30T05:33:23;100083.25;;;14.28;84.63
28004;BME280;15330;51.234;6.754;2023-03-30T05:35:50;100084.91;;;14.36;84.40
28004;BME280;15330;51.234;6.754;2023-03-30T05:38:16;100079.34;;;14.31;84.44
28004;BME280;15330;51.234;6.754;2023-03-30T05:40:42;100082.63;;;14.26;84.70
28004;BME280;15330;51.234;6.754;2023-03-30T05:43:07;100088.00;;;14.20;84.89
28004;BME280;15330;51.234;6.754;2023-03-30T05:45:33;100078.88;;;14.14;85.20
28004;BME280;15330;51.234;6.754;2023-03-30T05:47:58;100078.69;;;14.22;85.08
28004;BME280;15330;51.234;6.754;2023-03-30T05:50:25;100089.84;;;14.13;85.74
28004;BME280;15330;51.234;6.754;2023-03-30T05:52:50;100096.28;;;14.18;85.30
28004;BME280;15330;51.234;6.754;2023-03-30T05:55:16;100100.63;;;14.19;85.78
28004;BME280;15330;51.234;6.754;2023-03-30T05:57:41;100104.56;;;14.17;85.52
28004;BME280;15330;51.234;6.754;2023-03-30T06:00:07;100092.53;;;14.13;85.36
28004;BME280;15330;51.234;6.754;2023-03-30T06:02:37;100106.84;;;14.20;85.00
28004;BME280;15330;51.234;6.754;2023-03-30T06:05:03;100098.75;;;14.13;85.03
28004;BME280;15330;51.234;6.754;2023-03-30T06:07:28;100105.19;;;14.19;84.97
28004;BME280;15330;51.234;6.754;2023-03-30T06:09:54;100102.06;;;14.15;85.19
28004;BME280;15330;51.234;6.754;2023-03-30T06:12:20;100098.34;;;14.16;85.19
28004;BME280;15330;51.234;6.754;2023-03-30T06:14:45;100094.00;;;14.15;85.38
28004;BME280;15330;51.234;6.754;2023-03-30T06:17:11;100091.31;;;14.15;85.18
28004;BME280;15330;51.234;6.754;2023-03-30T06:19:38;100104.56;;;14.17;85.17
28004;BME280;15330;51.234;6.754;2023-03-30T06:22:04;100103.91;;;14.15;85.33
28004;BME280;15330;51.234;6.754;2023-03-30T06:24:29;100097.09;;;14.12;85.55
28004;BME280;15330;51.234;6.754;2023-03-30T06:26:55;100097.09;;;14.12;85.75
28004;BME280;15330;51.234;6.754;2023-03-30T06:29:21;100099.78;;;14.06;85.64
28004;BME280;15330;51.234;6.754;2023-03-30T06:31:47;100103.28;;;14.13;85.66
28004;BME280;15330;51.234;6.754;2023-03-30T06:34:12;100100.84;;;14.18;85.93
28004;BME280;15330;51.234;6.754;2023-03-30T06:36:37;100097.75;;;14.21;84.75
28004;BME280;15330;51.234;6.754;2023-03-30T06:39:03;100093.41;;;14.26;84.44
28004;BME280;15330;51.234;6.754;2023-03-30T06:41:29;100106.84;;;14.26;83.80
28004;BME280;15330;51.234;6.754;2023-03-30T06:43:55;100109.34;;;14.21;84.05
28004;BME280;15330;51.234;6.754;2023-03-30T06:46:20;100113.25;;;14.19;84.49
28004;BME280;15330;51.234;6.754;2023-03-30T06:48:46;100107.25;;;14.17;84.29
28004;BME280;15330;51.234;6.754;2023-03-30T06:51:14;100116.97;;;14.18;84.26
28004;BME280;15330;51.234;6.754;2023-03-30T06:53:40;100119.47;;;14.19;84.12
28004;BME280;15330;51.234;6.754;2023-03-30T06:56:05;100116.78;;;14.19;84.29
28004;BME280;15330;51.234;6.754;2023-03-30T06:58:32;100122.56;;;14.23;84.43
28004;BME280;15330;51.234;6.754;2023-03-30T07:00:58;100125.47;;;14.21;84.19
28004;BME280;15330;51.234;6.754;2023-03-30T07:03:24;100116.16;;;14.17;84.59
28004;BME280;15330;51.234;6.754;2023-03-30T07:05:51;100129.59;;;14.24;84.34
28004;BME280;15330;51.234;6.754;2023-03-30T07:08:19;100121.13;;;14.20;84.92
28004;BME280;15330;51.234;6.754;2023-03-30T07:10:46;100123.38;;;14.17;85.12
28004;BME280;15330;51.234;6.754;2023-03-30T07:13:12;100126.28;;;14.15;85.61
28004;BME280;15330;51.234;6.754;2023-03-30T07:15:37;100126.28;;;14.15;85.02
28004;BME280;15330;51.234;6.754;2023-03-30T07:18:03;100121.53;;;14.11;85.50
28004;BME280;15330;51.234;6.754;2023-03-30T07:20:28;100131.44;;;14.17;85.59
28004;BME280;15330;51.234;6.754;2023-03-30T07:22:54;100142.22;;;14.17;85.48
28004;BME280;15330;51.234;6.754;2023-03-30T07:25:19;100133.69;;;14.07;86.07
28004;BME280;15330;51.234;6.754;2023-03-30T07:27:44;100146.31;;;14.13;85.38
28004;BME280;15330;51.234;6.754;2023-03-30T07:30:11;100146.56;;;14.11;85.75
28004;BME280;15330;51.234;6.754;2023-03-30T07:32:37;100139.91;;;14.07;85.64
28004;BME280;15330;51.234;6.754;2023-03-30T07:35:02;100148.41;;;14.11;85.72
28004;BME280;15330;51.234;6.754;2023-03-30T07:37:28;100152.75;;;14.12;86.12
28004;BME280;15330;51.234;6.754;2023-03-30T07:39:54;100157.28;;;14.05;86.19
28004;BME280;15330;51.234;6.754;2023-03-30T07:42:21;100146.06;;;13.94;86.12
28004;BME280;15330;51.234;6.754;2023-03-30T07:44:46;100160.53;;;13.93;86.13
28004;BME280;15330;51.234;6.754;2023-03-30T07:47:11;100154.53;;;13.91;86.30
28004;BME280;15330;51.234;6.754;2023-03-30T07:49:37;100164.88;;;13.88;86.57
28004;BME280;15330;51.234;6.754;2023-03-30T07:52:02;100166.69;;;13.81;86.96
28004;BME280;15330;51.234;6.754;2023-03-30T07:54:28;100182.16;;;13.72;86.97
28004;BME280;15330;51.234;6.754;2023-03-30T07:56:53;100197.03;;;13.68;86.55
28004;BME280;15330;51.234;6.754;2023-03-30T07:59:19;100195.47;;;13.52;90.93
28004;BME280;15330;51.234;6.754;2023-03-30T08:01:45;100195.31;;;13.26;94.87
28004;BME280;15330;51.234;6.754;2023-03-30T08:04:13;100198.44;;;13.08;95.86
28004;BME280;15330;51.234;6.754;2023-03-30T08:06:39;100203.94;;;13.00;96.92
28004;BME280;15330;51.234;6.754;2023-03-30T08:09:04;100197.16;;;12.76;97.77
28004;BME280;15330;51.234;6.754;2023-03-30T08:11:30;100205.63;;;12.80;97.74
28004;BME280;15330;51.234;6.754;2023-03-30T08:13:56;100210.63;;;12.83;97.79
28004;BME280;15330;51.234;6.754;2023-03-30T08:16:22;100206.22;;;12.75;98.26
28004;BME280;15330;51.234;6.754;2023-03-30T08:18:47;100211.25;;;12.85;98.53
28004;BME280;15330;51.234;6.754;2023-03-30T08:21:13;100218.84;;;12.81;98.87
28004;BME280;15330;51.234;6.754;2023-03-30T08:23:38;100218.16;;;12.94;98.47
28004;BME280;15330;51.234;6.754;2023-03-30T08:26:04;100218.19;;;13.01;98.46
28004;BME280;15330;51.234;6.754;2023-03-30T08:28:30;100218.19;;;13.01;98.44
28004;BME280;15330;51.234;6.754;2023-03-30T08:31:02;100209.16;;;13.08;97.87
28004;BME280;15330;51.234;6.754;2023-03-30T08:33:28;100220.66;;;13.45;95.82
28004;BME280;15330;51.234;6.754;2023-03-30T08:35:54;100206.72;;;14.04;93.15
28004;BME280;15330;51.234;6.754;2023-03-30T08:38:19;100214.47;;;14.33;90.99
28004;BME280;15330;51.234;6.754;2023-03-30T08:40:46;100209.53;;;14.37;89.53
28004;BME280;15330;51.234;6.754;2023-03-30T08:43:38;100208.97;;;14.41;88.69
28004;BME280;15330;51.234;6.754;2023-03-30T08:46:11;100209.22;;;15.52;83.51
28004;BME280;15330;51.234;6.754;2023-03-30T08:48:38;100203.28;;;16.90;79.00
28004;BME280;15330;51.234;6.754;2023-03-30T08:51:28;100189.06;;;18.06;73.81
28004;BME280;15330;51.234;6.754;2023-03-30T08:53:58;100199.00;;;19.25;69.93
28004;BME280;15330;51.234;6.754;2023-03-30T08:56:29;100201.19;;;18.33;71.20
28004;BME280;15330;51.234;6.754;2023-03-30T09:07:19;100214.47;;;16.11;80.71
28004;BME280;15330;51.234;6.754;2023-03-30T09:09:47;100212.56;;;15.40;83.36
28004;BME280;15330;51.234;6.754;2023-03-30T09:12:23;100209.22;;;15.38;82.74
28004;BME280;15330;51.234;6.754;2023-03-30T09:15:04;100237.22;;;14.91;84.04
28004;BME280;15330;51.234;6.754;2023-03-30T09:17:38;100240.75;;;14.92;84.64
28004;BME280;15330;51.234;6.754;2023-03-30T09:22:39;100244.44;;;13.82;93.49
28004;BME280;15330;51.234;6.754;2023-03-30T09:25:11;100257.78;;;13.35;95.17
28004;BME280;15330;51.234;6.754;2023-03-30T09:30:36;100260.72;;;12.97;94.13
28004;BME280;15330;51.234;6.754;2023-03-30T09:33:15;100270.97;;;12.87;93.54
28004;BME280;15330;51.234;6.754;2023-03-30T09:38:40;100255.09;;;12.71;93.39
28004;BME280;15330;51.234;6.754;2023-03-30T09:41:23;100274.53;;;12.94;94.52
28004;BME280;15330;51.234;6.754;2023-03-30T09:43:55;100264.25;;;12.76;95.30
28004;BME280;15330;51.234;6.754;2023-03-30T09:46:22;100282.75;;;12.71;96.18
28004;BME280;15330;51.234;6.754;2023-03-30T09:48:48;100275.06;;;12.68;96.38
28004;BME280;15330;51.234;6.754;2023-03-30T09:51:23;100284.72;;;12.63;97.05
28004;BME280;15330;51.234;6.754;2023-03-30T09:53:52;100291.66;;;12.57;97.31
28004;BME280;15330;51.234;6.754;2023-03-30T09:56:41;100293.50;;;12.57;97.52
28004;BME280;15330;51.234;6.754;2023-03-30T09:59:31;100301.31;;;12.52;98.04
28004;BME280;15330;51.234;6.754;2023-03-30T10:02:24;100295.47;;;12.48;98.27
28004;BME280;15330;51.234;6.754;2023-03-30T10:07:23;100308.25;;;12.46;99.01
28004;BME280;15330;51.234;6.754;2023-03-30T10:09:49;100288.00;;;12.43;100.00
28004;BME280;15330;51.234;6.754;2023-03-30T10:12:15;100306.13;;;12.41;100.00
28004;BME280;15330;51.234;6.754;2023-03-30T10:14:42;100296.88;;;12.44;100.00
28004;BME280;15330;51.234;6.754;2023-03-30T10:17:17;100312.81;;;12.45;100.00
28004;BME280;15330;51.234;6.754;2023-03-30T10:19:44;100291.13;;;12.47;100.00
28004;BME280;15330;51.234;6.754;2023-03-30T10:22:18;100295.28;;;12.49;100.00
28004;BME280;15330;51.234;6.754;2023-03-30T10:24:54;100292.41;;;12.66;100.00
28004;BME280;15330;51.234;6.754;2023-03-30T10:27:27;100304.25;;;12.57;100.00
28004;BME280;15330;51.234;6.754;2023-03-30T10:30:08;100293.78;;;12.62;100.00
28004;BME280;15330;51.234;6.754;2023-03-30T10:32:34;100310.56;;;12.85;100.00
28004;BME280;15330;51.234;6.754;2023-03-30T10:35:07;100316.94;;;13.20;99.78
28004;BME280;15330;51.234;6.754;2023-03-30T10:37:37;100311.69;;;14.17;95.15
28004;BME280;15330;51.234;6.754;2023-03-30T10:40:15;100311.00;;;15.10;90.46
28004;BME280;15330;51.234;6.754;2023-03-30T10:42:42;100307.50;;;16.08;86.56
28004;BME280;15330;51.234;6.754;2023-03-30T10:45:21;100317.56;;;16.33;84.47
28004;BME280;15330;51.234;6.754;2023-03-30T10:48:06;100305.84;;;15.28;87.73
28004;BME280;15330;51.234;6.754;2023-03-30T10:50:56;100313.91;;;15.09;87.71
28004;BME280;15330;51.234;6.754;2023-03-30T10:53:53;100320.34;;;15.27;87.06
28004;BME280;15330;51.234;6.754;2023-03-30T11:07:01;100307.25;;;16.74;78.77
28004;BME280;15330;51.234;6.754;2023-03-30T11:09:33;100308.25;;;17.18;77.63
28004;BME280;15330;51.234;6.754;2023-03-30T11:12:05;100305.38;;;16.75;77.46
28004;BME280;15330;51.234;6.754;2023-03-30T11:17:21;100300.75;;;16.82;77.34
28004;BME280;15330;51.234;6.754;2023-03-30T11:19:51;100321.84;;;17.36;76.52
28004;BME280;15330;51.234;6.754;2023-03-30T11:24:56;100306.00;;;16.12;77.89
28004;BME280;15330;51.234;6.754;2023-03-30T11:27:34;100305.00;;;16.07;78.47
28004;BME280;15330;51.234;6.754;2023-03-30T11:30:42;100313.97;;;15.55;80.54
28004;BME280;15330;51.234;6.754;2023-03-30T11:33:18;100302.75;;;16.55;77.66
28004;BME280;15330;51.234;6.754;2023-03-30T11:36:47;100315.25;;;16.49;77.77
28004;BME280;15330;51.234;6.754;2023-03-30T11:41:18;100309.59;;;15.87;79.35
28004;BME280;15330;51.234;6.754;2023-03-30T11:43:47;100299.00;;;15.78;78.85
28004;BME280;15330;51.234;6.754;2023-03-30T11:46:28;100298.78;;;15.93;78.71
28004;BME280;15330;51.234;6.754;2023-03-30T11:57:42;100296.94;;;15.41;80.35
28004;BME280;15330;51.234;6.754;2023-03-30T12:05:46;100300.03;;;15.05;82.98
28004;BME280;15330;51.234;6.754;2023-03-30T12:10:46;100317.72;;;14.60;86.49
28004;BME280;15330;51.234;6.754;2023-03-30T12:13:17;100317.38;;;14.83;87.17
28004;BME280;15330;51.234;6.754;2023-03-30T12:16:03;100318.25;;;15.10;86.26
28004;BME280;15330;51.234;6.754;2023-03-30T12:21:31;100332.22;;;15.66;84.71
28004;BME280;15330;51.234;6.754;2023-03-30T12:26:44;100329.13;;;15.62;84.18
28004;BME280;15330;51.234;6.754;2023-03-30T12:29:12;100325.13;;;15.52;84.79
28004;BME280;15330;51.234;6.754;2023-03-30T12:34:21;100337.19;;;15.82;84.35
28004;BME280;15330;51.234;6.754;2023-03-30T12:36:52;100346.13;;;15.56;84.99
28004;BME280;15330;51.234;6.754;2023-03-30T12:39:25;100333.34;;;14.91;86.25
28004;BME280;15330;51.234;6.754;2023-03-30T12:47:23;100340.50;;;14.29;87.53
28004;BME280;15330;51.234;6.754;2023-03-30T12:50:13;100333.34;;;14.43;87.16
28004;BME280;15330;51.234;6.754;2023-03-30T12:56:10;100351.41;;;14.49;86.34
28004;BME280;15330;51.234;6.754;2023-03-30T13:03:53;100324.66;;;15.09;84.20
28004;BME280;15330;51.234;6.754;2023-03-30T13:08:53;100307.09;;;15.39;82.22
28004;BME280;15330;51.234;6.754;2023-03-30T13:11:20;100304.41;;;15.59;82.66
28004;BME280;15330;51.234;6.754;2023-03-30T13:13:58;100307.56;;;15.56;81.92
28004;BME280;15330;51.234;6.754;2023-03-30T13:32:33;100290.50;;;15.68;82.97
28004;BME280;15330;51.234;6.754;2023-03-30T13:38:18;100291.78;;;15.59;83.14
28004;BME280;15330;51.234;6.754;2023-03-30T13:44:03;100295.28;;;15.47;81.69
28004;BME280;15330;51.234;6.754;2023-03-30T13:46:32;100293.63;;;15.52;81.59
28004;BME280;15330;51.234;6.754;2023-03-30T13:49:30;100282.19;;;15.17;82.58
28004;BME280;15330;51.234;6.754;2023-03-30T13:52:08;100290.69;;;15.27;83.78
28004;BME280;15330;51.234;6.754;2023-03-30T13:54:37;100276.84;;;15.43;83.58
28004;BME280;15330;51.234;6.754;2023-03-30T13:57:10;100276.84;;;15.63;81.76
28004;BME280;15330;51.234;6.754;2023-03-30T13:59:40;100278.00;;;16.00;80.11
28004;BME280;15330;51.234;6.754;2023-03-30T14:02:15;100278.50;;;15.45;79.33
28004;BME280;15330;51.234;6.754;2023-03-30T14:04:43;100283.88;;;15.71;77.95
28004;BME280;15330;51.234;6.754;2023-03-30T14:07:20;100278.09;;;15.67;76.31
28004;BME280;15330;51.234;6.754;2023-03-30T14:10:21;100281.56;;;15.94;77.04
28004;BME280;15330;51.234;6.754;2023-03-30T14:12:51;100299.03;;;15.85;78.55
28004;BME280;15330;51.234;6.754;2023-03-30T14:15:32;100284.69;;;15.85;79.43
28004;BME280;15330;51.234;6.754;2023-03-30T14:18:01;100288.84;;;15.48;80.61
28004;BME280;15330;51.234;6.754;2023-03-30T14:20:58;100297.75;;;15.22;82.31
28004;BME280;15330;51.234;6.754;2023-03-30T14:23:33;100293.38;;;15.01;82.85
28004;BME280;15330;51.234;6.754;2023-03-30T14:26:03;100297.09;;;14.93;82.80
28004;BME280;15330;51.234;6.754;2023-03-30T14:28:34;100312.19;;;14.88;83.17
28004;BME280;15330;51.234;6.754;2023-03-30T14:31:03;100305.91;;;14.67;86.73
28004;BME280;15330;51.234;6.754;2023-03-30T14:33:37;100293.75;;;14.85;87.75
28004;BME280;15330;51.234;6.754;2023-03-30T14:36:04;100297.69;;;14.95;82.31
28004;BME280;15330;51.234;6.754;2023-03-30T14:38:50;100296.72;;;15.03;82.19
28004;BME280;15330;51.234;6.754;2023-03-30T14:41:24;100288.81;;;15.01;81.14
28004;BME280;15330;51.234;6.754;2023-03-30T14:44:05;100291.34;;;15.23;79.74
28004;BME280;15330;51.234;6.754;2023-03-30T14:49:02;100280.59;;;15.56;77.88
28004;BME280;15330;51.234;6.754;2023-03-30T14:51:41;100291.34;;;15.69;78.31
28004;BME280;15330;51.234;6.754;2023-03-30T14:54:12;100279.13;;;15.60;78.65
28004;BME280;15330;51.234;6.754;2023-03-30T14:56:40;100278.28;;;15.59;79.27
28004;BME280;15330;51.234;6.754;2023-03-30T14:59:09;100276.66;;;15.65;80.18
28004;BME280;15330;51.234;6.754;2023-03-30T15:01:36;100277.88;;;15.42;81.27
28004;BME280;15330;51.234;6.754;2023-03-30T15:04:08;100280.75;;;15.28;82.17
28004;BME280;15330;51.234;6.754;2023-03-30T15:06:35;100279.94;;;15.34;82.64
28004;BME280;15330;51.234;6.754;2023-03-30T15:09:03;100265.63;;;15.27;82.85
28004;BME280;15330;51.234;6.754;2023-03-30T15:11:32;100264.59;;;15.21;84.03
28004;BME280;15330;51.234;6.754;2023-03-30T15:14:05;100266.66;;;15.19;84.32
28004;BME280;15330;51.234;6.754;2023-03-30T15:16:32;100273.28;;;15.03;85.52
28004;BME280;15330;51.234;6.754;2023-03-30T15:19:05;100266.84;;;14.98;86.26
28004;BME280;15330;51.234;6.754;2023-03-30T15:21:35;100262.31;;;15.12;86.03
28004;BME280;15330;51.234;6.754;2023-03-30T15:24:05;100273.69;;;15.07;88.78
28004;BME280;15330;51.234;6.754;2023-03-30T15:26:31;100271.59;;;14.96;91.90